Maryland METAR Reports


Distance/Direction noted is from Ellicott City, MD as the crow flies

KCBE - Cumberland - 118 miles WNW
Updated: Wed, 10/22/2014 6:32 PM
Overcast
Overcast
 Wind from NNW
Wind: NNW 10 mph, Gust: 17 mph
Temperature: 52°F
Dew Point: 43°F
Humidity: 72%
Barometer: 30.12 inHg
Clouds: Overcast
Visibility: 10 miles
Cloud Details: Overcast 2700 ft
2014/10/22 22:32 KCBE 222232Z AUTO 33009G15KT 10SM OVC027 11/06 A3012 RMK AO1
KHGR - Hagerstown - 57 miles NW
Updated: Wed, 10/22/2014 5:53 PM
Overcast
Overcast
 Wind from NNW
Wind: NNW 15 mph
Temperature: 55°F
Dew Point: 45°F
Humidity: 67%
Barometer: 29.98 inHg
Clouds: Overcast
Visibility: 10 miles
Cloud Details: Overcast 3500 ft
2014/10/22 21:53 KHGR 222153Z 33013KT 10SM OVC035 13/07 A2998 RMK AO2 SLP161 T01330067
 
KFDK - Frederick - 34 miles NW
Updated: Wed, 10/22/2014 5:55 PM
Overcast
Overcast
 Wind from N
Wind: N 12 mph, Gust: 18 mph
Temperature: 61°F
Dew Point: 46°F
Humidity: 59%
Barometer: 29.98 inHg
Clouds: Overcast
Visibility: 10 miles
Cloud Details: Overcast 3700 ft
2014/10/22 21:55 KFDK 222155Z 35010G16KT 10SM OVC037 16/08 A2998
KGAI - Gaithersburg - 26 miles SW
Updated: Wed, 10/22/2014 6:35 PM
Overcast
Overcast
 Wind from NW
Wind: NW 8 mph
Temperature: 54°F
Dew Point: 46°F
Humidity: 77%
Barometer: 29.98 inHg
Clouds: Overcast
Visibility: 10 miles
Cloud Details: Overcast 3200 ft
2014/10/22 22:35 KGAI 222235Z 32007KT 10SM OVC032 12/08 A2998 RMK AO1
 
KBWI - BWI Airport - 15 miles SE
Updated: Wed, 10/22/2014 5:54 PM
Light rain, Overcast
Light rain, Overcast
 Wind from NNW
Wind: NNW 15 mph, Gust: 21 mph
Temperature: 54°F
Dew Point: 46°F
Humidity: 77%
Barometer: 29.90 inHg
Summary: Light Rain
Clouds: Overcast
Visibility: 10 miles
Cloud Details: Few Clouds 2400 ft
Mostly Cloudy 3000 ft
Overcast 3600 ft
2014/10/22 21:54 KBWI 222154Z 33013G18KT 10SM -RA FEW024 BKN030 OVC036 12/08 A2990 RMK AO2 RAE17B33 SLP125 P0000 T01220083
KNAK - Annapolis - 32 miles SSE
Updated: Wed, 10/22/2014 5:54 PM
Light rain, Overcast
Light rain, Overcast
 Wind from NNW
Wind: NNW 16 mph
Temperature: 55°F
Dew Point: 50°F
Humidity: 82%
Barometer: 29.89 inHg
Summary: Light Rain
Clouds: Overcast
Visibility: 7 miles
Cloud Details: Few Clouds 3500 ft
Mostly Cloudy 6500 ft
Overcast 8000 ft
2014/10/22 21:54 KNAK 222154Z AUTO 33014KT 7SM -RA FEW035 BKN065 OVC080 13/10 A2989 RMK AO2 RAE21B42 SLP123 P0000 T01330100
 
KESN - Easton - 63 miles SE
Updated: Wed, 10/22/2014 6:50 PM
Light drizzle, Overcast
Light drizzle, Overcast
 Wind from N
Wind: N 12 mph, Gust: 21 mph
Temperature: 55°F
Dew Point: 55°F
Humidity: 100%
Barometer: 29.91 inHg
Summary: Light Drizzle
Clouds: Overcast
Visibility: 7 miles
Cloud Details: Mostly Cloudy 1800 ft
Overcast 3100 ft
2014/10/22 22:50 KESN 222250Z 35010G18KT 7SM -DZ BKN018 OVC031 13/13 A2991
KSBY - Salisbury - 112 miles SE
Updated: Wed, 10/22/2014 6:44 PM
Light rain, Overcast
Light rain, Overcast
 Wind from NNW
Wind: NNW 17 mph, Gust: 29 mph
Temperature: 57°F
Dew Point: 52°F
Humidity: 82%
Barometer: 29.81 inHg
Summary: Light Rain
Clouds: Overcast
Visibility: 10 miles
Cloud Details: Mostly Cloudy 1300 ft
Overcast 1900 ft
2014/10/22 22:44 KSBY 222244Z 33015G25KT 10SM -RA BKN013 OVC019 14/11 A2981 RMK AO2 RAB21 P0000